sensor_id;sensor_type;location;lat;lon;timestamp;P1;durP1;ratioP1;P2;durP2;ratioP2
56637;SDS011;42507;51.982;20.140;2022-09-30T00:00:30;54.60;;;30.57;;
56637;SDS011;42507;51.982;20.140;2022-09-30T00:02:58;49.53;;;27.32;;
56637;SDS011;42507;51.982;20.140;2022-09-30T00:05:24;48.45;;;26.57;;
56637;SDS011;42507;51.982;20.140;2022-09-30T00:07:50;41.95;;;23.42;;
56637;SDS011;42507;51.982;20.140;2022-09-30T00:10:16;39.30;;;20.75;;
56637;SDS011;42507;51.982;20.140;2022-09-30T00:12:42;40.60;;;23.05;;
56637;SDS011;42507;51.982;20.140;2022-09-30T00:15:09;38.42;;;23.12;;
56637;SDS011;42507;51.982;20.140;2022-09-30T00:17:35;38.92;;;22.93;;
56637;SDS011;42507;51.982;20.140;2022-09-30T00:20:02;37.25;;;22.67;;
56637;SDS011;42507;51.982;20.140;2022-09-30T00:22:28;35.45;;;20.43;;
56637;SDS011;42507;51.982;20.140;2022-09-30T00:24:55;37.53;;;20.60;;
56637;SDS011;42507;51.982;20.140;2022-09-30T00:27:21;35.75;;;20.17;;
56637;SDS011;42507;51.982;20.140;2022-09-30T00:29:47;37.78;;;21.37;;
56637;SDS011;42507;51.982;20.140;2022-09-30T00:32:13;36.40;;;20.43;;
56637;SDS011;42507;51.982;20.140;2022-09-30T00:34:39;40.55;;;22.40;;
56637;SDS011;42507;51.982;20.140;2022-09-30T00:37:05;36.17;;;22.52;;
56637;SDS011;42507;51.982;20.140;2022-09-30T00:39:33;39.92;;;22.87;;
56637;SDS011;42507;51.982;20.140;2022-09-30T00:42:02;35.50;;;22.62;;
56637;SDS011;42507;51.982;20.140;2022-09-30T00:45:05;33.55;;;21.35;;
56637;SDS011;42507;51.982;20.140;2022-09-30T00:56:05;32.05;;;18.92;;
56637;SDS011;42507;51.982;20.140;2022-09-30T01:01:29;29.15;;;18.50;;
56637;SDS011;42507;51.982;20.140;2022-09-30T01:03:57;30.48;;;20.25;;
56637;SDS011;42507;51.982;20.140;2022-09-30T01:06:32;30.30;;;19.05;;
56637;SDS011;42507;51.982;20.140;2022-09-30T01:08:59;29.98;;;18.23;;
56637;SDS011;42507;51.982;20.140;2022-09-30T01:11:26;27.20;;;17.75;;
56637;SDS011;42507;51.982;20.140;2022-09-30T01:13:53;26.17;;;17.07;;
56637;SDS011;42507;51.982;20.140;2022-09-30T01:19:49;26.12;;;16.20;;
56637;SDS011;42507;51.982;20.140;2022-09-30T01:28:03;34.27;;;21.07;;
56637;SDS011;42507;51.982;20.140;2022-09-30T01:33:58;24.15;;;14.90;;
56637;SDS011;42507;51.982;20.140;2022-09-30T01:36:36;24.43;;;15.70;;
56637;SDS011;42507;51.982;20.140;2022-09-30T01:39:36;23.98;;;14.20;;
56637;SDS011;42507;51.982;20.140;2022-09-30T01:42:14;28.10;;;17.80;;
56637;SDS011;42507;51.982;20.140;2022-09-30T01:47:30;24.32;;;14.43;;
56637;SDS011;42507;51.982;20.140;2022-09-30T01:50:04;24.70;;;14.53;;
56637;SDS011;42507;51.982;20.140;2022-09-30T01:52:38;25.02;;;15.72;;
56637;SDS011;42507;51.982;20.140;2022-09-30T01:55:17;26.45;;;16.10;;
56637;SDS011;42507;51.982;20.140;2022-09-30T02:00:43;26.77;;;17.55;;
56637;SDS011;42507;51.982;20.140;2022-09-30T02:03:17;24.18;;;15.75;;
56637;SDS011;42507;51.982;20.140;2022-09-30T02:06:03;21.90;;;14.20;;
56637;SDS011;42507;51.982;20.140;2022-09-30T02:11:16;23.52;;;14.90;;
56637;SDS011;42507;51.982;20.140;2022-09-30T02:13:50;25.17;;;16.25;;
56637;SDS011;42507;51.982;20.140;2022-09-30T02:16:39;28.15;;;17.23;;
56637;SDS011;42507;51.982;20.140;2022-09-30T02:19:22;26.15;;;17.77;;
56637;SDS011;42507;51.982;20.140;2022-09-30T02:21:59;28.73;;;15.90;;
56637;SDS011;42507;51.982;20.140;2022-09-30T02:24:49;27.45;;;17.27;;
56637;SDS011;42507;51.982;20.140;2022-09-30T02:27:19;30.60;;;17.87;;
56637;SDS011;42507;51.982;20.140;2022-09-30T02:29:51;36.25;;;17.65;;
56637;SDS011;42507;51.982;20.140;2022-09-30T02:32:25;22.55;;;12.55;;
56637;SDS011;42507;51.982;20.140;2022-09-30T02:35:00;23.52;;;14.43;;
56637;SDS011;42507;51.982;20.140;2022-09-30T02:37:50;26.85;;;15.25;;
56637;SDS011;42507;51.982;20.140;2022-09-30T02:40:31;26.52;;;14.98;;
56637;SDS011;42507;51.982;20.140;2022-09-30T02:42:57;23.67;;;14.18;;
56637;SDS011;42507;51.982;20.140;2022-09-30T02:45:23;24.00;;;15.48;;
56637;SDS011;42507;51.982;20.140;2022-09-30T02:48:00;26.33;;;16.60;;
56637;SDS011;42507;51.982;20.140;2022-09-30T02:53:42;19.07;;;12.82;;
56637;SDS011;42507;51.982;20.140;2022-09-30T02:56:39;21.73;;;13.25;;
56637;SDS011;42507;51.982;20.140;2022-09-30T02:59:09;27.00;;;14.58;;
56637;SDS011;42507;51.982;20.140;2022-09-30T03:01:35;28.45;;;16.17;;
56637;SDS011;42507;51.982;20.140;2022-09-30T03:04:03;27.20;;;16.52;;
56637;SDS011;42507;51.982;20.140;2022-09-30T03:06:31;28.92;;;17.77;;
56637;SDS011;42507;51.982;20.140;2022-09-30T03:08:57;26.55;;;15.85;;
56637;SDS011;42507;51.982;20.140;2022-09-30T03:11:24;23.27;;;14.40;;
56637;SDS011;42507;51.982;20.140;2022-09-30T03:14:11;27.95;;;16.30;;
56637;SDS011;42507;51.982;20.140;2022-09-30T03:26:02;29.00;;;16.95;;
56637;SDS011;42507;51.982;20.140;2022-09-30T03:28:50;33.15;;;17.32;;
56637;SDS011;42507;51.982;20.140;2022-09-30T03:31:43;24.45;;;15.08;;
56637;SDS011;42507;51.982;20.140;2022-09-30T03:34:28;32.53;;;16.57;;
56637;SDS011;42507;51.982;20.140;2022-09-30T03:37:11;26.07;;;16.85;;
56637;SDS011;42507;51.982;20.140;2022-09-30T03:39:56;30.80;;;18.98;;
56637;SDS011;42507;51.982;20.140;2022-09-30T03:42:41;24.37;;;14.47;;
56637;SDS011;42507;51.982;20.140;2022-09-30T03:45:22;24.65;;;15.32;;
56637;SDS011;42507;51.982;20.140;2022-09-30T03:47:58;28.85;;;18.50;;
56637;SDS011;42507;51.982;20.140;2022-09-30T03:50:28;26.42;;;15.25;;
56637;SDS011;42507;51.982;20.140;2022-09-30T03:52:56;22.87;;;12.60;;
56637;SDS011;42507;51.982;20.140;2022-09-30T03:55:22;25.55;;;13.98;;
56637;SDS011;42507;51.982;20.140;2022-09-30T03:57:50;23.70;;;14.63;;
56637;SDS011;42507;51.982;20.140;2022-09-30T04:00:16;21.80;;;15.05;;
56637;SDS011;42507;51.982;20.140;2022-09-30T04:02:43;25.70;;;15.10;;
56637;SDS011;42507;51.982;20.140;2022-09-30T04:05:10;27.45;;;16.02;;
56637;SDS011;42507;51.982;20.140;2022-09-30T04:07:37;25.02;;;15.55;;
56637;SDS011;42507;51.982;20.140;2022-09-30T04:10:03;27.10;;;15.60;;
56637;SDS011;42507;51.982;20.140;2022-09-30T04:12:30;23.55;;;13.88;;
56637;SDS011;42507;51.982;20.140;2022-09-30T04:14:57;28.67;;;15.78;;
56637;SDS011;42507;51.982;20.140;2022-09-30T04:17:23;25.55;;;14.43;;
56637;SDS011;42507;51.982;20.140;2022-09-30T04:19:49;24.05;;;13.70;;
56637;SDS011;42507;51.982;20.140;2022-09-30T04:22:15;21.42;;;13.25;;
56637;SDS011;42507;51.982;20.140;2022-09-30T04:24:42;20.90;;;13.38;;
56637;SDS011;42507;51.982;20.140;2022-09-30T04:27:08;21.62;;;12.90;;
56637;SDS011;42507;51.982;20.140;2022-09-30T04:29:34;28.55;;;15.55;;
56637;SDS011;42507;51.982;20.140;2022-09-30T04:32:00;24.32;;;15.90;;
56637;SDS011;42507;51.982;20.140;2022-09-30T04:34:27;30.88;;;17.62;;
56637;SDS011;42507;51.982;20.140;2022-09-30T04:36:53;32.45;;;19.12;;
56637;SDS011;42507;51.982;20.140;2022-09-30T04:39:19;30.80;;;17.92;;
56637;SDS011;42507;51.982;20.140;2022-09-30T04:41:46;29.95;;;17.55;;
56637;SDS011;42507;51.982;20.140;2022-09-30T04:44:12;23.05;;;13.55;;
56637;SDS011;42507;51.982;20.140;2022-09-30T04:46:38;23.42;;;13.05;;
56637;SDS011;42507;51.982;20.140;2022-09-30T04:49:04;21.90;;;14.68;;
56637;SDS011;42507;51.982;20.140;2022-09-30T04:51:31;21.20;;;13.75;;
56637;SDS011;42507;51.982;20.140;2022-09-30T04:53:57;21.70;;;13.90;;
56637;SDS011;42507;51.982;20.140;2022-09-30T04:56:24;25.85;;;15.05;;
56637;SDS011;42507;51.982;20.140;2022-09-30T04:58:51;29.10;;;16.45;;
56637;SDS011;42507;51.982;20.140;2022-09-30T05:01:19;21.35;;;12.78;;
56637;SDS011;42507;51.982;20.140;2022-09-30T05:03:46;21.90;;;12.80;;
56637;SDS011;42507;51.982;20.140;2022-09-30T05:06:13;21.35;;;13.72;;
56637;SDS011;42507;51.982;20.140;2022-09-30T05:08:39;22.98;;;13.60;;
56637;SDS011;42507;51.982;20.140;2022-09-30T05:11:09;21.68;;;14.20;;
56637;SDS011;42507;51.982;20.140;2022-09-30T05:13:38;22.55;;;13.03;;
56637;SDS011;42507;51.982;20.140;2022-09-30T05:16:06;26.80;;;15.43;;
56637;SDS011;42507;51.982;20.140;2022-09-30T05:18:33;27.20;;;16.97;;
56637;SDS011;42507;51.982;20.140;2022-09-30T05:21:00;22.42;;;14.75;;
56637;SDS011;42507;51.982;20.140;2022-09-30T05:23:29;23.27;;;14.80;;
56637;SDS011;42507;51.982;20.140;2022-09-30T05:25:56;28.75;;;17.07;;
56637;SDS011;42507;51.982;20.140;2022-09-30T05:28:23;29.37;;;19.17;;
56637;SDS011;42507;51.982;20.140;2022-09-30T05:30:56;28.90;;;17.02;;
56637;SDS011;42507;51.982;20.140;2022-09-30T05:33:25;28.25;;;17.05;;
56637;SDS011;42507;51.982;20.140;2022-09-30T05:35:54;33.45;;;17.67;;
56637;SDS011;42507;51.982;20.140;2022-09-30T05:38:22;32.25;;;18.30;;
56637;SDS011;42507;51.982;20.140;2022-09-30T05:40:48;39.78;;;20.52;;
56637;SDS011;42507;51.982;20.140;2022-09-30T05:43:15;42.75;;;21.48;;
56637;SDS011;42507;51.982;20.140;2022-09-30T05:45:41;38.15;;;22.55;;
56637;SDS011;42507;51.982;20.140;2022-09-30T05:48:07;35.30;;;21.65;;
56637;SDS011;42507;51.982;20.140;2022-09-30T05:50:33;35.03;;;20.20;;
56637;SDS011;42507;51.982;20.140;2022-09-30T05:52:59;36.53;;;19.62;;
56637;SDS011;42507;51.982;20.140;2022-09-30T05:55:25;32.73;;;19.20;;
56637;SDS011;42507;51.982;20.140;2022-09-30T05:57:51;32.95;;;20.45;;
56637;SDS011;42507;51.982;20.140;2022-09-30T06:00:18;32.17;;;19.87;;
56637;SDS011;42507;51.982;20.140;2022-09-30T06:02:45;37.93;;;21.37;;
56637;SDS011;42507;51.982;20.140;2022-09-30T06:05:12;34.85;;;20.15;;
56637;SDS011;42507;51.982;20.140;2022-09-30T06:07:38;41.40;;;21.95;;
56637;SDS011;42507;51.982;20.140;2022-09-30T06:10:05;40.20;;;21.68;;
56637;SDS011;42507;51.982;20.140;2022-09-30T06:12:35;33.65;;;20.60;;
56637;SDS011;42507;51.982;20.140;2022-09-30T06:15:03;39.73;;;21.25;;
56637;SDS011;42507;51.982;20.140;2022-09-30T06:17:30;41.65;;;21.57;;
56637;SDS011;42507;51.982;20.140;2022-09-30T06:19:56;37.10;;;20.20;;
56637;SDS011;42507;51.982;20.140;2022-09-30T06:22:22;40.00;;;20.85;;
56637;SDS011;42507;51.982;20.140;2022-09-30T06:24:49;35.70;;;20.92;;
56637;SDS011;42507;51.982;20.140;2022-09-30T06:27:15;35.63;;;20.17;;
56637;SDS011;42507;51.982;20.140;2022-09-30T06:29:42;31.35;;;19.92;;
56637;SDS011;42507;51.982;20.140;2022-09-30T06:32:08;33.10;;;21.07;;
56637;SDS011;42507;51.982;20.140;2022-09-30T06:34:34;33.80;;;21.33;;
56637;SDS011;42507;51.982;20.140;2022-09-30T06:37:01;30.82;;;20.62;;
56637;SDS011;42507;51.982;20.140;2022-09-30T06:39:27;30.90;;;21.82;;
56637;SDS011;42507;51.982;20.140;2022-09-30T06:41:54;35.03;;;21.07;;
56637;SDS011;42507;51.982;20.140;2022-09-30T06:44:23;38.30;;;24.00;;
56637;SDS011;42507;51.982;20.140;2022-09-30T06:46:50;33.23;;;23.77;;
56637;SDS011;42507;51.982;20.140;2022-09-30T06:49:16;36.35;;;23.40;;
56637;SDS011;42507;51.982;20.140;2022-09-30T06:51:42;30.12;;;19.50;;
56637;SDS011;42507;51.982;20.140;2022-09-30T06:54:09;34.08;;;22.62;;
56637;SDS011;42507;51.982;20.140;2022-09-30T06:56:35;34.73;;;22.13;;
56637;SDS011;42507;51.982;20.140;2022-09-30T06:59:01;30.75;;;21.15;;
56637;SDS011;42507;51.982;20.140;2022-09-30T07:01:27;33.90;;;22.75;;
56637;SDS011;42507;51.982;20.140;2022-09-30T07:03:54;32.93;;;21.97;;
56637;SDS011;42507;51.982;20.140;2022-09-30T07:06:23;31.57;;;22.13;;
56637;SDS011;42507;51.982;20.140;2022-09-30T07:08:51;37.40;;;22.90;;
56637;SDS011;42507;51.982;20.140;2022-09-30T07:11:18;31.17;;;22.27;;
56637;SDS011;42507;51.982;20.140;2022-09-30T07:13:45;31.35;;;20.30;;
56637;SDS011;42507;51.982;20.140;2022-09-30T07:16:12;28.00;;;18.57;;
56637;SDS011;42507;51.982;20.140;2022-09-30T07:18:39;29.75;;;20.43;;
56637;SDS011;42507;51.982;20.140;2022-09-30T07:21:10;32.90;;;20.95;;
56637;SDS011;42507;51.982;20.140;2022-09-30T07:23:38;26.42;;;18.60;;
56637;SDS011;42507;51.982;20.140;2022-09-30T07:26:10;27.70;;;18.67;;
56637;SDS011;42507;51.982;20.140;2022-09-30T07:28:36;27.22;;;18.17;;
56637;SDS011;42507;51.982;20.140;2022-09-30T07:31:08;27.65;;;18.70;;
56637;SDS011;42507;51.982;20.140;2022-09-30T07:33:38;24.23;;;16.25;;
56637;SDS011;42507;51.982;20.140;2022-09-30T07:36:05;25.00;;;16.93;;
56637;SDS011;42507;51.982;20.140;2022-09-30T07:38:33;27.52;;;17.80;;
56637;SDS011;42507;51.982;20.140;2022-09-30T07:41:11;29.57;;;18.80;;
56637;SDS011;42507;51.982;20.140;2022-09-30T07:43:42;30.25;;;19.25;;
56637;SDS011;42507;51.982;20.140;2022-09-30T07:46:11;29.42;;;18.30;;
56637;SDS011;42507;51.982;20.140;2022-09-30T07:48:45;34.48;;;20.70;;
56637;SDS011;42507;51.982;20.140;2022-09-30T07:53:59;31.05;;;19.75;;
56637;SDS011;42507;51.982;20.140;2022-09-30T07:56:30;25.85;;;18.02;;
56637;SDS011;42507;51.982;20.140;2022-09-30T07:58:58;29.00;;;19.30;;
56637;SDS011;42507;51.982;20.140;2022-09-30T08:01:26;21.02;;;15.20;;
56637;SDS011;42507;51.982;20.140;2022-09-30T08:03:55;20.77;;;13.85;;
56637;SDS011;42507;51.982;20.140;2022-09-30T08:06:24;21.62;;;15.83;;
56637;SDS011;42507;51.982;20.140;2022-09-30T08:08:52;22.58;;;15.55;;
56637;SDS011;42507;51.982;20.140;2022-09-30T08:11:20;22.05;;;14.53;;
56637;SDS011;42507;51.982;20.140;2022-09-30T08:13:50;21.95;;;13.08;;
56637;SDS011;42507;51.982;20.140;2022-09-30T08:16:20;21.97;;;14.30;;
56637;SDS011;42507;51.982;20.140;2022-09-30T08:18:48;20.72;;;15.83;;
56637;SDS011;42507;51.982;20.140;2022-09-30T08:21:20;19.98;;;12.78;;
56637;SDS011;42507;51.982;20.140;2022-09-30T08:23:46;23.00;;;15.60;;
56637;SDS011;42507;51.982;20.140;2022-09-30T08:26:13;23.38;;;15.43;;
56637;SDS011;42507;51.982;20.140;2022-09-30T08:28:41;22.22;;;15.40;;
56637;SDS011;42507;51.982;20.140;2022-09-30T08:31:11;21.27;;;14.80;;
56637;SDS011;42507;51.982;20.140;2022-09-30T08:33:40;20.80;;;15.07;;
56637;SDS011;42507;51.982;20.140;2022-09-30T08:36:08;20.57;;;14.00;;
56637;SDS011;42507;51.982;20.140;2022-09-30T08:38:38;20.75;;;13.28;;
56637;SDS011;42507;51.982;20.140;2022-09-30T08:52:58;16.87;;;12.43;;
56637;SDS011;42507;51.982;20.140;2022-09-30T08:55:30;21.62;;;13.22;;
56637;SDS011;42507;51.982;20.140;2022-09-30T08:58:00;19.40;;;13.00;;
56637;SDS011;42507;51.982;20.140;2022-09-30T09:00:27;18.05;;;12.45;;
56637;SDS011;42507;51.982;20.140;2022-09-30T09:02:57;16.32;;;11.68;;
56637;SDS011;42507;51.982;20.140;2022-09-30T09:06:35;17.48;;;12.20;;
56637;SDS011;42507;51.982;20.140;2022-09-30T09:14:06;17.80;;;11.30;;
56637;SDS011;42507;51.982;20.140;2022-09-30T09:19:35;18.03;;;10.37;;
56637;SDS011;42507;51.982;20.140;2022-09-30T09:22:09;16.40;;;9.18;;
56637;SDS011;42507;51.982;20.140;2022-09-30T09:27:17;13.60;;;9.73;;
56637;SDS011;42507;51.982;20.140;2022-09-30T09:32:34;13.32;;;9.10;;
56637;SDS011;42507;51.982;20.140;2022-09-30T09:35:08;13.25;;;9.78;;
56637;SDS011;42507;51.982;20.140;2022-09-30T09:37:37;13.98;;;8.63;;
56637;SDS011;42507;51.982;20.140;2022-09-30T09:40:30;12.10;;;8.75;;
56637;SDS011;42507;51.982;20.140;2022-09-30T09:46:38;12.73;;;9.60;;
56637;SDS011;42507;51.982;20.140;2022-09-30T09:49:43;12.23;;;9.25;;
56637;SDS011;42507;51.982;20.140;2022-09-30T09:52:18;15.45;;;10.28;;
56637;SDS011;42507;51.982;20.140;2022-09-30T09:55:07;16.67;;;10.60;;
56637;SDS011;42507;51.982;20.140;2022-09-30T09:57:35;15.10;;;10.28;;
56637;SDS011;42507;51.982;20.140;2022-09-30T10:00:08;11.68;;;8.93;;
56637;SDS011;42507;51.982;20.140;2022-09-30T10:03:11;13.50;;;8.58;;
56637;SDS011;42507;51.982;20.140;2022-09-30T10:08:36;14.50;;;9.85;;
56637;SDS011;42507;51.982;20.140;2022-09-30T10:11:22;12.85;;;8.13;;
56637;SDS011;42507;51.982;20.140;2022-09-30T10:13:51;12.18;;;8.88;;
56637;SDS011;42507;51.982;20.140;2022-09-30T10:16:34;12.98;;;8.53;;
56637;SDS011;42507;51.982;20.140;2022-09-30T10:19:03;9.18;;;7.20;;
56637;SDS011;42507;51.982;20.140;2022-09-30T10:24:39;10.55;;;8.50;;
56637;SDS011;42507;51.982;20.140;2022-09-30T10:30:00;9.90;;;7.55;;
56637;SDS011;42507;51.982;20.140;2022-09-30T10:32:28;6.45;;;5.45;;
56637;SDS011;42507;51.982;20.140;2022-09-30T10:35:00;13.60;;;6.75;;
56637;SDS011;42507;51.982;20.140;2022-09-30T10:37:28;8.40;;;5.70;;
56637;SDS011;42507;51.982;20.140;2022-09-30T10:39:56;7.83;;;6.30;;
56637;SDS011;42507;51.982;20.140;2022-09-30T10:42:28;8.45;;;5.97;;
56637;SDS011;42507;51.982;20.140;2022-09-30T10:44:59;15.95;;;6.40;;
56637;SDS011;42507;51.982;20.140;2022-09-30T10:47:29;8.35;;;5.30;;
56637;SDS011;42507;51.982;20.140;2022-09-30T10:49:58;7.87;;;4.97;;
56637;SDS011;42507;51.982;20.140;2022-09-30T10:52:37;6.72;;;5.10;;
56637;SDS011;42507;51.982;20.140;2022-09-30T10:55:32;7.92;;;4.83;;
56637;SDS011;42507;51.982;20.140;2022-09-30T11:01:04;6.25;;;4.12;;
56637;SDS011;42507;51.982;20.140;2022-09-30T11:04:26;7.20;;;4.47;;
56637;SDS011;42507;51.982;20.140;2022-09-30T11:06:51;5.65;;;4.80;;
56637;SDS011;42507;51.982;20.140;2022-09-30T11:09:33;5.97;;;4.40;;
56637;SDS011;42507;51.982;20.140;2022-09-30T11:12:13;6.17;;;4.75;;
56637;SDS011;42507;51.982;20.140;2022-09-30T11:15:00;6.08;;;4.78;;
56637;SDS011;42507;51.982;20.140;2022-09-30T11:17:58;7.35;;;4.30;;
56637;SDS011;42507;51.982;20.140;2022-09-30T11:23:51;5.15;;;4.15;;
56637;SDS011;42507;51.982;20.140;2022-09-30T12:00:40;6.60;;;4.25;;
56637;SDS011;42507;51.982;20.140;2022-09-30T12:05:56;6.58;;;4.17;;
56637;SDS011;42507;51.982;20.140;2022-09-30T12:08:51;4.67;;;3.30;;
56637;SDS011;42507;51.982;20.140;2022-09-30T12:11:20;4.78;;;3.80;;
56637;SDS011;42507;51.982;20.140;2022-09-30T12:14:02;11.25;;;4.47;;
56637;SDS011;42507;51.982;20.140;2022-09-30T12:16:31;6.10;;;3.98;;
56637;SDS011;42507;51.982;20.140;2022-09-30T12:19:10;3.50;;;3.20;;
56637;SDS011;42507;51.982;20.140;2022-09-30T12:24:56;4.28;;;3.08;;
56637;SDS011;42507;51.982;20.140;2022-09-30T12:27:31;4.92;;;3.33;;
56637;SDS011;42507;51.982;20.140;2022-09-30T12:30:05;7.30;;;3.58;;
56637;SDS011;42507;51.982;20.140;2022-09-30T12:45:29;5.15;;;3.62;;
56637;SDS011;42507;51.982;20.140;2022-09-30T12:47:31;5.60;;;3.20;;
56637;SDS011;42507;51.982;20.140;2022-09-30T12:50:22;4.35;;;3.17;;
56637;SDS011;42507;51.982;20.140;2022-09-30T12:53:01;7.42;;;3.87;;
56637;SDS011;42507;51.982;20.140;2022-09-30T12:55:30;6.78;;;3.52;;
56637;SDS011;42507;51.982;20.140;2022-09-30T12:58:04;8.00;;;3.47;;
56637;SDS011;42507;51.982;20.140;2022-09-30T13:00:43;4.60;;;3.27;;
56637;SDS011;42507;51.982;20.140;2022-09-30T13:03:17;3.27;;;2.62;;
56637;SDS011;42507;51.982;20.140;2022-09-30T13:05:46;5.72;;;3.12;;
56637;SDS011;42507;51.982;20.140;2022-09-30T13:08:31;5.65;;;3.58;;
56637;SDS011;42507;51.982;20.140;2022-09-30T13:10:59;5.25;;;3.50;;
56637;SDS011;42507;51.982;20.140;2022-09-30T13:13:32;5.47;;;3.33;;
56637;SDS011;42507;51.982;20.140;2022-09-30T13:16:04;4.30;;;3.17;;
56637;SDS011;42507;51.982;20.140;2022-09-30T13:34:32;4.58;;;3.58;;
56637;SDS011;42507;51.982;20.140;2022-09-30T13:37:02;4.90;;;3.55;;
56637;SDS011;42507;51.982;20.140;2022-09-30T13:39:44;4.42;;;2.85;;
56637;SDS011;42507;51.982;20.140;2022-09-30T13:47:39;6.00;;;3.85;;
56637;SDS011;42507;51.982;20.140;2022-09-30T13:50:52;5.55;;;4.00;;
56637;SDS011;42507;51.982;20.140;2022-09-30T13:52:59;7.95;;;4.33;;
56637;SDS011;42507;51.982;20.140;2022-09-30T13:55:30;7.37;;;5.30;;
56637;SDS011;42507;51.982;20.140;2022-09-30T13:58:13;6.12;;;3.80;;
56637;SDS011;42507;51.982;20.140;2022-09-30T14:01:03;8.33;;;4.70;;
56637;SDS011;42507;51.982;20.140;2022-09-30T14:03:58;9.45;;;6.12;;
56637;SDS011;42507;51.982;20.140;2022-09-30T14:12:07;5.80;;;4.55;;
56637;SDS011;42507;51.982;20.140;2022-09-30T14:17:58;6.22;;;4.42;;
56637;SDS011;42507;51.982;20.140;2022-09-30T14:24:10;7.97;;;4.20;;
56637;SDS011;42507;51.982;20.140;2022-09-30T14:26:44;5.53;;;4.42;;
56637;SDS011;42507;51.982;20.140;2022-09-30T14:32:15;5.03;;;4.37;;
56637;SDS011;42507;51.982;20.140;2022-09-30T14:34:39;6.00;;;4.33;;
56637;SDS011;42507;51.982;20.140;2022-09-30T14:37:09;7.22;;;5.28;;
56637;SDS011;42507;51.982;20.140;2022-09-30T14:39:56;8.55;;;6.05;;
56637;SDS011;42507;51.982;20.140;2022-09-30T14:42:28;10.80;;;6.55;;
56637;SDS011;42507;51.982;20.140;2022-09-30T14:44:59;5.97;;;4.70;;
56637;SDS011;42507;51.982;20.140;2022-09-30T14:47:32;6.53;;;5.83;;
56637;SDS011;42507;51.982;20.140;2022-09-30T14:50:10;13.62;;;8.63;;
56637;SDS011;42507;51.982;20.140;2022-09-30T14:52:42;17.50;;;10.28;;
56637;SDS011;42507;51.982;20.140;2022-09-30T14:57:52;9.65;;;5.97;;
56637;SDS011;42507;51.982;20.140;2022-09-30T15:00:25;12.75;;;7.67;;
56637;SDS011;42507;51.982;20.140;2022-09-30T15:02:59;10.90;;;6.87;;
56637;SDS011;42507;51.982;20.140;2022-09-30T15:05:27;7.70;;;5.83;;
56637;SDS011;42507;51.982;20.140;2022-09-30T15:07:54;7.08;;;5.75;;
56637;SDS011;42507;51.982;20.140;2022-09-30T15:10:21;14.05;;;8.53;;
56637;SDS011;42507;51.982;20.140;2022-09-30T15:12:49;10.48;;;7.17;;
56637;SDS011;42507;51.982;20.140;2022-09-30T15:15:24;7.45;;;5.58;;
56637;SDS011;42507;51.982;20.140;2022-09-30T15:17:54;12.05;;;5.90;;
56637;SDS011;42507;51.982;20.140;2022-09-30T15:20:27;9.33;;;7.08;;
56637;SDS011;42507;51.982;20.140;2022-09-30T15:22:57;7.72;;;6.15;;
56637;SDS011;42507;51.982;20.140;2022-09-30T15:25:28;13.58;;;6.80;;
56637;SDS011;42507;51.982;20.140;2022-09-30T15:27:55;8.35;;;6.15;;
56637;SDS011;42507;51.982;20.140;2022-09-30T15:30:28;9.93;;;5.83;;
56637;SDS011;42507;51.982;20.140;2022-09-30T15:32:56;13.43;;;8.10;;
56637;SDS011;42507;51.982;20.140;2022-09-30T15:35:29;8.80;;;6.35;;
56637;SDS011;42507;51.982;20.140;2022-09-30T15:38:04;11.83;;;8.00;;
56637;SDS011;42507;51.982;20.140;2022-09-30T15:40:40;11.30;;;7.65;;
56637;SDS011;42507;51.982;20.140;2022-09-30T15:46:19;8.80;;;6.35;;
56637;SDS011;42507;51.982;20.140;2022-09-30T15:48:59;10.55;;;7.42;;
56637;SDS011;42507;51.982;20.140;2022-09-30T15:51:28;12.90;;;8.60;;
56637;SDS011;42507;51.982;20.140;2022-09-30T15:56:58;11.70;;;7.08;;
56637;SDS011;42507;51.982;20.140;2022-09-30T16:02:25;12.75;;;8.33;;
56637;SDS011;42507;51.982;20.140;2022-09-30T16:04:52;12.47;;;8.15;;
56637;SDS011;42507;51.982;20.140;2022-09-30T16:07:19;13.48;;;8.30;;
56637;SDS011;42507;51.982;20.140;2022-09-30T16:09:49;12.60;;;9.48;;
56637;SDS011;42507;51.982;20.140;2022-09-30T16:12:16;14.13;;;9.65;;
56637;SDS011;42507;51.982;20.140;2022-09-30T16:14:57;14.73;;;9.28;;
56637;SDS011;42507;51.982;20.140;2022-09-30T16:17:44;13.43;;;7.80;;
56637;SDS011;42507;51.982;20.140;2022-09-30T16:28:08;12.85;;;8.60;;
56637;SDS011;42507;51.982;20.140;2022-09-30T16:30:55;14.38;;;8.38;;
56637;SDS011;42507;51.982;20.140;2022-09-30T16:33:12;8.88;;;7.08;;
56637;SDS011;42507;51.982;20.140;2022-09-30T16:35:40;10.65;;;6.65;;
56637;SDS011;42507;51.982;20.140;2022-09-30T16:38:09;11.75;;;7.10;;
56637;SDS011;42507;51.982;20.140;2022-09-30T16:40:39;11.20;;;7.78;;
56637;SDS011;42507;51.982;20.140;2022-09-30T16:43:07;11.88;;;7.90;;
56637;SDS011;42507;51.982;20.140;2022-09-30T16:45:35;9.95;;;7.37;;
56637;SDS011;42507;51.982;20.140;2022-09-30T16:48:04;9.50;;;6.70;;
56637;SDS011;42507;51.982;20.140;2022-09-30T16:53:32;11.05;;;8.00;;
56637;SDS011;42507;51.982;20.140;2022-09-30T16:55:59;10.35;;;7.50;;
56637;SDS011;42507;51.982;20.140;2022-09-30T16:58:26;12.23;;;8.40;;
56637;SDS011;42507;51.982;20.140;2022-09-30T17:00:52;15.83;;;7.25;;
56637;SDS011;42507;51.982;20.140;2022-09-30T17:03:18;10.28;;;7.00;;
56637;SDS011;42507;51.982;20.140;2022-09-30T17:05:46;13.78;;;8.55;;
56637;SDS011;42507;51.982;20.140;2022-09-30T17:08:18;14.07;;;9.23;;
56637;SDS011;42507;51.982;20.140;2022-09-30T17:10:45;16.07;;;9.10;;
56637;SDS011;42507;51.982;20.140;2022-09-30T17:13:15;14.03;;;9.40;;
56637;SDS011;42507;51.982;20.140;2022-09-30T17:15:46;20.43;;;12.63;;
56637;SDS011;42507;51.982;20.140;2022-09-30T17:18:15;23.02;;;11.90;;
56637;SDS011;42507;51.982;20.140;2022-09-30T17:20:43;16.17;;;9.75;;
56637;SDS011;42507;51.982;20.140;2022-09-30T17:23:11;14.00;;;8.88;;
56637;SDS011;42507;51.982;20.140;2022-09-30T17:25:38;12.68;;;9.05;;
56637;SDS011;42507;51.982;20.140;2022-09-30T17:28:09;15.75;;;10.43;;
56637;SDS011;42507;51.982;20.140;2022-09-30T17:30:36;16.35;;;11.48;;
56637;SDS011;42507;51.982;20.140;2022-09-30T17:33:04;17.12;;;11.48;;
56637;SDS011;42507;51.982;20.140;2022-09-30T17:35:30;19.32;;;11.70;;
56637;SDS011;42507;51.982;20.140;2022-09-30T17:37:58;18.40;;;11.18;;
56637;SDS011;42507;51.982;20.140;2022-09-30T17:40:25;13.35;;;10.10;;
56637;SDS011;42507;51.982;20.140;2022-09-30T17:43:09;17.90;;;10.72;;
56637;SDS011;42507;51.982;20.140;2022-09-30T17:45:36;14.95;;;10.43;;
56637;SDS011;42507;51.982;20.140;2022-09-30T17:48:06;17.55;;;10.55;;
56637;SDS011;42507;51.982;20.140;2022-09-30T17:50:38;16.60;;;10.40;;
56637;SDS011;42507;51.982;20.140;2022-09-30T17:53:03;14.40;;;10.05;;
56637;SDS011;42507;51.982;20.140;2022-09-30T17:55:30;14.28;;;9.70;;
56637;SDS011;42507;51.982;20.140;2022-09-30T17:57:59;17.73;;;9.88;;
56637;SDS011;42507;51.982;20.140;2022-09-30T18:00:27;19.40;;;12.85;;
56637;SDS011;42507;51.982;20.140;2022-09-30T18:02:54;30.45;;;18.98;;
56637;SDS011;42507;51.982;20.140;2022-09-30T18:05:20;48.25;;;26.97;;